Time;durP1;ratioP1;P1;durP2;ratioP2;P2;SDS_P1;SDS_P2;PMS_P1;PMS_P2;Temp;Humidity;BMP_temperature;BMP_pressure;BME280_temperature;BME280_humidity;BME280_pressure;Samples;Min_cycle;Max_cycle;Signal;HPM_P1;HPM_P2
2021/05/11 00:01:05;;;;;;;;;;;;;;;;;;5094461;28;19961;-63
2021/05/11 00:03:31;;;;;;;;;;;;;;;;;;5094464;28;19916;-63
2021/05/11 00:05:56;;;;;;;;;;;;;;;;;;5099137;28;19916;-63
2021/05/11 00:08:22;;;;;;;;;;;;;;;;;;5103233;28;19916;-63
2021/05/11 00:10:47;;;;;;;;;;;;;;;;;;5101194;28;20008;-63
2021/05/11 00:13:12;;;;;;;;;;;;;;;;;;5100565;28;19923;-63
2021/05/11 00:15:38;;;;;;;;;;;;;;;;;;5096213;28;20385;-63
2021/05/11 00:18:03;;;;;;;;;;;;;;;;;;5095554;28;19970;-63
2021/05/11 00:20:29;;;;;;;;;;;;;;;;;;5097595;28;19916;-63
2021/05/11 00:22:54;;;;;;;;;;;;;;;;;;5106113;28;19908;-63
2021/05/11 00:25:19;;;;;;;;;;;;;;;;;;5105539;28;19912;-63
2021/05/11 00:27:45;;;;;;;;;;;;;;;;;;5105301;28;20218;-63
2021/05/11 00:30:10;;;;;;;;;;;;;;;;;;5105501;28;19911;-63
2021/05/11 00:32:36;;;;;;;;;;;;;;;;;;5105537;28;19912;-62
2021/05/11 00:35:01;;;;;;;;;;;;;;;;;;5106091;28;19912;-63
2021/05/11 00:37:26;;;;;;;;;;;;;;;;;;5105066;28;19912;-63
2021/05/11 00:39:52;;;;;;;;;;;;;;;;;;5103429;28;19915;-63
2021/05/11 00:42:17;;;;;;;;;;;;;;;;;;5104578;28;19995;-63
2021/05/11 00:44:42;;;;;;;;;;;;;;;;;;5105844;28;20049;-62
2021/05/11 00:47:08;;;;;;;;;;;;;;;;;;5102214;28;19915;-63
2021/05/11 00:49:33;;;;;;;;;;;;;;;;;;5088004;28;20269;-63
2021/05/11 00:51:59;;;;;;;;;;;;;;;;;;5103105;28;20356;-63
2021/05/11 00:54:24;;;;;;;;;;;;;;;;;;5080227;28;19922;-63
2021/05/11 00:56:49;;;;;;;;;;;;;;;;;;5100155;28;19912;-63
2021/05/11 00:59:25;;;;;;;;;;;;;;;;;;5102716;28;19908;-59
2021/05/11 01:01:51;;;;;;;;;;;;;;;;;;5101104;28;19920;-59
2021/05/11 01:04:16;;;;;;;;;;;;;;;;;;5104242;28;19919;-58
2021/05/11 01:06:42;;;;;;;;;;;;;;;;;;5094032;28;19927;-59
2021/05/11 01:09:07;;;;;;;;;;;;;;;;;;5091720;28;19961;-59
2021/05/11 01:11:32;;;;;;;;;;;;;;;;;;5093967;28;19922;-60
2021/05/11 01:13:58;;;;;;;;;;;;;;;;;;5094188;28;19935;-59
2021/05/11 01:16:26;;;;;;;;;;;;;;;;;;5092779;28;19922;-60
2021/05/11 01:18:53;;;;;;;;;;;;;;;;;;5092140;28;20377;-60
2021/05/11 01:24:12;;;;;;;;;;;;;;;;;;5092002;28;20359;-60
2021/05/11 01:26:45;;;;;;;;;;;;;;;;;;5091423;28;19912;-63
2021/05/11 01:48:39;;;;;;;;;;;;;;;;;;5089387;28;19992;-61
2021/05/11 01:51:13;;;;;;;;;;;;;;;;;;5090525;28;20336;-61
2021/05/11 02:23:17;;;;;;;;;;;;;;;;;;5093791;28;19920;-61
2021/05/11 02:25:42;;;;;;;;;;;;;;;;;;5097278;28;19908;-61
2021/05/11 02:28:08;;;;;;;;;;;;;;;;;;5095022;28;19999;-60
2021/05/11 02:30:33;;;;;;;;;;;;;;;;;;5092265;28;19930;-61
2021/05/11 02:32:59;;;;;;;;;;;;;;;;;;5094099;28;19924;-61
2021/05/11 02:35:24;;;;;;;;;;;;;;;;;;5095861;28;20346;-63
2021/05/11 02:37:49;;;;;;;;;;;;;;;;;;5096473;28;19965;-63
2021/05/11 02:40:15;;;;;;;;;;;;;;;;;;5096840;28;19920;-63
2021/05/11 02:42:42;;;;;;;;;;;;;;;;;;5095237;28;19920;-63
2021/05/11 02:45:11;;;;;;;;;;;;;;;;;;5095904;28;19912;-64
2021/05/11 02:47:47;;;;;;;;;;;;;;;;;;5093045;28;20311;-63
2021/05/11 02:50:12;;;;;;;;;;;;;;;;;;5097127;28;20347;-63
2021/05/11 02:52:38;;;;;;;;;;;;;;;;;;5092056;28;20245;-63
2021/05/11 02:55:03;;;;;;;;;;;;;;;;;;5094599;28;20023;-61
2021/05/11 02:57:29;;;;;;;;;;;;;;;;;;5091890;28;19923;-61
2021/05/11 02:59:54;;;;;;;;;;;;;;;;;;5096349;28;19973;-62
2021/05/11 03:02:19;;;;;;;;;;;;;;;;;;5093004;28;20326;-61
2021/05/11 03:04:45;;;;;;;;;;;;;;;;;;5090021;28;19927;-60
2021/05/11 03:07:10;;;;;;;;;;;;;;;;;;5097905;28;19916;-60
2021/05/11 03:09:36;;;;;;;;;;;;;;;;;;5102822;28;20302;-61
2021/05/11 03:12:01;;;;;;;;;;;;;;;;;;5098795;28;19968;-60
2021/05/11 03:14:26;;;;;;;;;;;;;;;;;;5103985;28;19927;-61
2021/05/11 03:16:54;;;;;;;;;;;;;;;;;;5105143;28;19943;-60
2021/05/11 03:19:19;;;;;;;;;;;;;;;;;;5104865;28;20244;-61
2021/05/11 03:21:44;;;;;;;;;;;;;;;;;;5104663;28;19999;-60
2021/05/11 03:24:11;;;;;;;;;;;;;;;;;;5100610;28;19912;-60
2021/05/11 03:26:36;;;;;;;;;;;;;;;;;;5103563;28;20349;-60
2021/05/11 03:29:01;;;;;;;;;;;;;;;;;;5105856;28;19916;-60
2021/05/11 03:31:27;;;;;;;;;;;;;;;;;;5103992;28;19916;-60
2021/05/11 03:33:52;;;;;;;;;;;;;;;;;;5103523;28;20412;-60
2021/05/11 03:36:18;;;;;;;;;;;;;;;;;;5099260;28;19921;-61
2021/05/11 03:38:45;;;;;;;;;;;;;;;;;;5099272;28;20334;-61
2021/05/11 03:41:13;;;;;;;;;;;;;;;;;;5097737;28;19965;-61
2021/05/11 03:43:48;;;;;;;;;;;;;;;;;;5095984;28;19923;-61
2021/05/11 03:46:13;;;;;;;;;;;;;;;;;;5104606;28;19912;-62
2021/05/11 03:48:39;;;;;;;;;;;;;;;;;;5101397;28;19924;-62
2021/05/11 03:51:07;;;;;;;;;;;;;;;;;;5101125;28;20049;-62
2021/05/11 03:53:33;;;;;;;;;;;;;;;;;;5101952;28;19913;-61
2021/05/11 03:55:58;;;;;;;;;;;;;;;;;;5104341;28;20385;-61
2021/05/11 03:58:23;;;;;;;;;;;;;;;;;;5103287;28;19922;-61
2021/05/11 04:00:49;;;;;;;;;;;;;;;;;;5088255;28;19968;-61
2021/05/11 04:03:14;;;;;;;;;;;;;;;;;;5103053;28;19923;-62
2021/05/11 04:05:40;;;;;;;;;;;;;;;;;;5105301;28;19964;-61
2021/05/11 04:08:05;;;;;;;;;;;;;;;;;;5102488;28;19916;-61
2021/05/11 04:10:42;;;;;;;;;;;;;;;;;;5103019;28;19963;-61
2021/05/11 04:16:22;;;;;;;;;;;;;;;;;;5103335;28;20443;-61
2021/05/11 04:18:27;;;;;;;;;;;;;;;;;;5090094;28;19920;-65
2021/05/11 04:20:53;;;;;;;;;;;;;;;;;;5103823;28;20256;-65
2021/05/11 04:23:18;;;;;;;;;;;;;;;;;;5098870;28;19920;-59
2021/05/11 04:25:43;;;;;;;;;;;;;;;;;;5097483;28;19916;-59
2021/05/11 04:28:09;;;;;;;;;;;;;;;;;;5103996;28;19920;-59
2021/05/11 04:30:34;;;;;;;;;;;;;;;;;;5099027;28;19913;-59
2021/05/11 04:33:00;;;;;;;;;;;;;;;;;;5101088;28;19935;-59
2021/05/11 04:35:25;;;;;;;;;;;;;;;;;;5102294;28;20004;-59
2021/05/11 04:37:51;;;;;;;;;;;;;;;;;;5100105;28;19912;-59
2021/05/11 04:40:16;;;;;;;;;;;;;;;;;;5101773;28;19916;-59
2021/05/11 04:42:43;;;;;;;;;;;;;;;;;;5101215;28;19920;-59
2021/05/11 04:45:09;;;;;;;;;;;;;;;;;;5099667;28;20242;-59
2021/05/11 04:47:47;;;;;;;;;;;;;;;;;;5094929;28;19974;-59
2021/05/11 04:50:13;;;;;;;;;;;;;;;;;;5088224;28;19978;-59
2021/05/11 04:52:38;;;;;;;;;;;;;;;;;;5095221;28;19916;-64
2021/05/11 04:55:04;;;;;;;;;;;;;;;;;;5097354;28;19923;-64
2021/05/11 04:57:29;;;;;;;;;;;;;;;;;;5103216;28;19924;-63
2021/05/11 04:59:54;;;;;;;;;;;;;;;;;;5101228;28;20265;-63
2021/05/11 05:02:22;;;;;;;;;;;;;;;;;;5096011;28;20003;-62
2021/05/11 05:04:47;;;;;;;;;;;;;;;;;;5103225;28;19937;-63
2021/05/11 05:07:12;;;;;;;;;;;;;;;;;;5101069;28;19916;-62
2021/05/11 05:09:38;;;;;;;;;;;;;;;;;;5097133;28;19926;-61
2021/05/11 05:12:03;;;;;;;;;;;;;;;;;;5100711;28;19951;-61
2021/05/11 05:14:28;;;;;;;;;;;;;;;;;;5102448;28;19923;-61
2021/05/11 05:16:54;;;;;;;;;;;;;;;;;;5103711;28;20257;-61
2021/05/11 05:19:19;;;;;;;;;;;;;;;;;;5103299;28;19923;-60
2021/05/11 05:21:45;;;;;;;;;;;;;;;;;;5102162;28;19958;-61
2021/05/11 05:24:25;;;;;;;;;;;;;;;;;;5099850;28;19916;-61
2021/05/11 05:26:52;;;;;;;;;;;;;;;;;;5103765;28;20273;-62
2021/05/11 05:29:18;;;;;;;;;;;;;;;;;;5095348;28;19916;-61
2021/05/11 05:31:43;;;;;;;;;;;;;;;;;;5096205;28;19919;-61
2021/05/11 05:34:09;;;;;;;;;;;;;;;;;;5094511;28;20257;-61
2021/05/11 05:36:34;;;;;;;;;;;;;;;;;;5097991;28;19989;-61
2021/05/11 05:39:00;;;;;;;;;;;;;;;;;;5097840;28;19912;-61
2021/05/11 05:41:25;;;;;;;;;;;;;;;;;;5100382;28;19912;-61
2021/05/11 05:43:50;;;;;;;;;;;;;;;;;;5104321;28;20717;-61
2021/05/11 05:46:16;;;;;;;;;;;;;;;;;;5100192;28;20018;-62
2021/05/11 05:48:42;;;;;;;;;;;;;;;;;;5103061;28;20408;-62
2021/05/11 05:51:08;;;;;;;;;;;;;;;;;;5102865;28;19919;-63
2021/05/11 05:53:34;;;;;;;;;;;;;;;;;;5102838;28;19915;-63
2021/05/11 05:55:59;;;;;;;;;;;;;;;;;;5103726;28;19969;-63
2021/05/11 05:58:24;;;;;;;;;;;;;;;;;;5103418;28;19912;-62
2021/05/11 06:00:57;;;;;;;;;;;;;;;;;;5098269;28;19912;-62
2021/05/11 06:06:26;;;;;;;;;;;;;;;;;;5063164;28;20366;-62
2021/05/11 06:08:51;;;;;;;;;;;;;;;;;;5064950;28;19921;-62
2021/05/11 06:19:30;;;;;;;;;;;;;;;;;;5094760;28;19927;-61
2021/05/11 06:21:55;;;;;;;;;;;;;;;;;;5094727;28;19912;-62
2021/05/11 06:24:20;;;;;;;;;;;;;;;;;;5092177;28;19926;-61
2021/05/11 06:26:46;;;;;;;;;;;;;;;;;;5094724;28;20334;-61
2021/05/11 06:29:12;;;;;;;;;;;;;;;;;;5092750;28;19915;-61
2021/05/11 06:31:37;;;;;;;;;;;;;;;;;;5095325;28;19971;-62
2021/05/11 06:34:04;;;;;;;;;;;;;;;;;;5094070;28;19927;-62
2021/05/11 06:36:29;;;;;;;;;;;;;;;;;;5092941;28;19931;-62
2021/05/11 06:38:55;;;;;;;;;;;;;;;;;;5095476;28;19999;-62
2021/05/11 06:41:20;;;;;;;;;;;;;;;;;;5091108;28;20257;-61
2021/05/11 06:43:46;;;;;;;;;;;;;;;;;;5095088;28;20368;-61
2021/05/11 06:54:04;;;;;;;;;;;;;;;;;;5093391;28;20004;-62
2021/05/11 06:56:31;;;;;;;;;;;;;;;;;;5093497;28;19943;-62
2021/05/11 06:58:57;;;;;;;;;;;;;;;;;;5093570;28;20328;-62
2021/05/11 07:01:22;;;;;;;;;;;;;;;;;;5093359;28;20035;-62
2021/05/11 07:03:47;;;;;;;;;;;;;;;;;;5094748;28;20018;-58
2021/05/11 07:06:14;;;;;;;;;;;;;;;;;;5102843;28;19916;-61
2021/05/11 07:08:44;;;;;;;;;;;;;;;;;;5103353;28;19934;-62
2021/05/11 07:11:24;;;;;;;;;;;;;;;;;;5102099;28;19979;-61
2021/05/11 07:13:49;;;;;;;;;;;;;;;;;;5104861;28;19920;-62
2021/05/11 07:16:15;;;;;;;;;;;;;;;;;;5105179;28;19912;-62
2021/05/11 07:18:40;;;;;;;;;;;;;;;;;;5105884;28;19955;-62
2021/05/11 07:21:05;;;;;;;;;;;;;;;;;;5102472;28;20405;-62
2021/05/11 07:23:31;;;;;;;;;;;;;;;;;;5100976;28;19926;-63
2021/05/11 07:30:56;;;;;;;;;;;;;;;;;;5101959;28;20476;-62
2021/05/11 07:33:24;;;;;;;;;;;;;;;;;;5106179;28;19922;-61
2021/05/11 07:35:49;;;;;;;;;;;;;;;;;;5104453;28;19972;-62
2021/05/11 07:38:14;;;;;;;;;;;;;;;;;;5103103;28;19916;-63
2021/05/11 07:40:40;;;;;;;;;;;;;;;;;;5101711;28;20338;-62
2021/05/11 07:43:06;;;;;;;;;;;;;;;;;;5103550;28;19927;-62
2021/05/11 08:04:37;;;;;;;;;;;;;;;;;;5103535;28;20332;-61
2021/05/11 08:17:21;;;;;;;;;;;;;;;;;;5093087;28;19924;-61
2021/05/11 08:19:59;;;;;;;;;;;;;;;;;;5093066;28;20341;-62
2021/05/11 08:27:59;;;;;;;;;;;;;;;;;;5091084;28;19969;-63
2021/05/11 08:30:25;;;;;;;;;;;;;;;;;;5092993;28;19911;-62
2021/05/11 08:32:50;;;;;;;;;;;;;;;;;;5093370;28;19923;-63
2021/05/11 08:35:16;;;;;;;;;;;;;;;;;;5093205;28;19969;-63
2021/05/11 08:37:41;;;;;;;;;;;;;;;;;;5090584;28;19990;-64
2021/05/11 08:40:07;;;;;;;;;;;;;;;;;;5093217;28;19912;-63
2021/05/11 08:42:32;;;;;;;;;;;;;;;;;;5092697;28;20015;-65
2021/05/11 08:44:57;;;;;;;;;;;;;;;;;;5093148;28;20364;-64
2021/05/11 08:47:23;;;;;;;;;;;;;;;;;;5092042;28;19916;-64
2021/05/11 08:49:49;;;;;;;;;;;;;;;;;;5091319;28;20100;-64
2021/05/11 08:52:28;;;;;;;;;;;;;;;;;;5091456;28;19919;-63
2021/05/11 09:08:23;;;;;;;;;;;;;;;;;;5098347;28;19920;-63
2021/05/11 09:14:22;;;;;;;;;;;;;;;;;;5067274;28;19917;-63
2021/05/11 09:23:31;;;;;;;;;;;;;;;;;;5100092;28;19920;-64
2021/05/11 09:25:08;;;;;;;;;;;;;;;;;;5068615;28;20242;-62
2021/05/11 09:57:11;;;;;;;;;;;;;;;;;;5100495;28;19965;-63
2021/05/11 10:13:59;;;;;;;;;;;;;;;;;;5098503;28;20000;-62
2021/05/11 10:32:27;;;;;;;;;;;;;;;;;;5101109;28;19923;-58
2021/05/11 10:40:25;;;;;;;;;;;;;;;;;;5107125;28;19943;-58
2021/05/11 10:48:08;;;;;;;;;;;;;;;;;;5105025;28;19915;-59
2021/05/11 10:50:34;;;;;;;;;;;;;;;;;;5106450;28;20333;-59
2021/05/11 10:52:59;;;;;;;;;;;;;;;;;;5104060;28;19926;-59
2021/05/11 10:55:26;;;;;;;;;;;;;;;;;;5106695;28;19916;-59
2021/05/11 10:57:58;;;;;;;;;;;;;;;;;;5104767;28;19918;-59
2021/05/11 11:00:27;;;;;;;;;;;;;;;;;;5103221;28;19968;-59
2021/05/11 11:02:53;;;;;;;;;;;;;;;;;;5103709;28;19954;-59
2021/05/11 11:05:18;;;;;;;;;;;;;;;;;;5106612;28;19958;-59
2021/05/11 11:07:48;;;;;;;;;;;;;;;;;;5083805;28;19930;-59
2021/05/11 11:10:13;;;;;;;;;;;;;;;;;;5105304;28;20410;-59
2021/05/11 11:12:39;;;;;;;;;;;;;;;;;;5105324;28;20120;-59
2021/05/11 11:15:04;;;;;;;;;;;;;;;;;;5105634;28;19922;-59
2021/05/11 11:17:30;;;;;;;;;;;;;;;;;;5105410;28;19912;-59
2021/05/11 11:20:00;;;;;;;;;;;;;;;;;;5107652;28;19969;-59
2021/05/11 11:25:09;;;;;;;;;;;;;;;;;;5104187;28;19976;-58
2021/05/11 11:27:35;;;;;;;;;;;;;;;;;;5103553;28;19915;-58
2021/05/11 11:30:00;;;;;;;;;;;;;;;;;;5106306;28;19927;-59
2021/05/11 11:32:25;;;;;;;;;;;;;;;;;;5105326;28;19919;-59
2021/05/11 11:34:51;;;;;;;;;;;;;;;;;;5104944;28;19912;-59
2021/05/11 11:37:16;;;;;;;;;;;;;;;;;;5102617;28;20268;-59
2021/05/11 11:39:42;;;;;;;;;;;;;;;;;;5104717;28;19942;-58
2021/05/11 11:42:07;;;;;;;;;;;;;;;;;;5104646;28;20006;-59
2021/05/11 11:44:35;;;;;;;;;;;;;;;;;;5103998;28;19919;-59
2021/05/11 11:47:01;;;;;;;;;;;;;;;;;;5103606;28;19920;-59
2021/05/11 11:49:26;;;;;;;;;;;;;;;;;;5106373;28;19988;-59
2021/05/11 11:51:55;;;;;;;;;;;;;;;;;;5104392;28;19920;-59
2021/05/11 11:54:35;;;;;;;;;;;;;;;;;;5102275;28;19916;-59
2021/05/11 11:59:32;;;;;;;;;;;;;;;;;;5102006;28;19917;-59
2021/05/11 12:01:57;;;;;;;;;;;;;;;;;;5104051;28;20007;-58
2021/05/11 12:04:22;;;;;;;;;;;;;;;;;;5104296;28;20306;-59
2021/05/11 12:06:50;;;;;;;;;;;;;;;;;;5103760;28;19915;-59
2021/05/11 12:09:15;;;;;;;;;;;;;;;;;;5103636;28;19916;-59
2021/05/11 12:11:41;;;;;;;;;;;;;;;;;;5099286;28;20219;-59
2021/05/11 12:14:06;;;;;;;;;;;;;;;;;;5106031;28;19915;-59
2021/05/11 12:16:32;;;;;;;;;;;;;;;;;;5103936;28;19923;-58
2021/05/11 12:19:05;;;;;;;;;;;;;;;;;;5101824;28;19928;-59
2021/05/11 12:21:31;;;;;;;;;;;;;;;;;;5100018;28;20057;-58
2021/05/11 12:23:56;;;;;;;;;;;;;;;;;;5102958;28;20377;-58
2021/05/11 12:26:22;;;;;;;;;;;;;;;;;;5103218;28;19972;-58
2021/05/11 12:28:47;;;;;;;;;;;;;;;;;;5102501;28;19916;-59
2021/05/11 12:31:12;;;;;;;;;;;;;;;;;;5102770;28;20368;-59
2021/05/11 12:33:38;;;;;;;;;;;;;;;;;;5102472;28;19916;-59
2021/05/11 12:36:04;;;;;;;;;;;;;;;;;;5102643;28;19955;-58
2021/05/11 12:38:30;;;;;;;;;;;;;;;;;;5102531;28;20032;-59
2021/05/11 12:43:21;;;;;;;;;;;;;;;;;;5103811;28;20015;-59
2021/05/11 12:45:47;;;;;;;;;;;;;;;;;;5103096;28;20337;-59
2021/05/11 12:48:12;;;;;;;;;;;;;;;;;;5098786;28;19978;-59
2021/05/11 12:50:39;;;;;;;;;;;;;;;;;;5099531;28;19912;-59
2021/05/11 12:53:07;;;;;;;;;;;;;;;;;;5104025;28;19919;-59
2021/05/11 12:55:33;;;;;;;;;;;;;;;;;;5102737;28;19971;-59
2021/05/11 12:58:11;;;;;;;;;;;;;;;;;;5099555;28;19915;-59
2021/05/11 13:00:45;;;;;;;;;;;;;;;;;;5099343;28;19923;-59
2021/05/11 13:27:19;;;;;;;;;;;;;;;;;;5055653;28;20363;-58
2021/05/11 13:30:49;;;;;;;;;;;;;;;;;;5103829;28;19916;-62
2021/05/11 13:35:23;;;;;;;;;;;;;;;;;;5104023;28;20023;-63
2021/05/11 13:37:48;;;;;;;;;;;;;;;;;;5103582;28;20360;-63
2021/05/11 13:40:14;;;;;;;;;;;;;;;;;;5102884;28;19912;-62
2021/05/11 13:42:39;;;;;;;;;;;;;;;;;;5098122;28;19916;-61
2021/05/11 13:45:05;;;;;;;;;;;;;;;;;;5103717;28;20250;-62
2021/05/11 13:47:30;;;;;;;;;;;;;;;;;;5101882;28;20255;-61
2021/05/11 13:49:57;;;;;;;;;;;;;;;;;;5098804;28;20269;-61
2021/05/11 13:52:23;;;;;;;;;;;;;;;;;;5103804;28;19908;-62
2021/05/11 13:54:53;;;;;;;;;;;;;;;;;;5100753;28;20002;-61
2021/05/11 14:02:44;;;;;;;;;;;;;;;;;;5096301;28;19923;-63
2021/05/11 14:05:09;;;;;;;;;;;;;;;;;;5098071;28;20020;-62
2021/05/11 14:07:34;;;;;;;;;;;;;;;;;;5101885;28;20364;-63
2021/05/11 14:10:00;;;;;;;;;;;;;;;;;;5102472;28;20312;-63
2021/05/11 14:12:25;;;;;;;;;;;;;;;;;;5104395;28;19912;-62
2021/05/11 14:14:51;;;;;;;;;;;;;;;;;;5105324;28;20000;-62
2021/05/11 14:17:16;;;;;;;;;;;;;;;;;;5104571;28;19916;-62
2021/05/11 14:19:42;;;;;;;;;;;;;;;;;;5102261;28;20003;-62
2021/05/11 14:22:07;;;;;;;;;;;;;;;;;;5103900;28;19919;-63
2021/05/11 14:24:33;;;;;;;;;;;;;;;;;;5106500;28;19912;-63
2021/05/11 14:26:58;;;;;;;;;;;;;;;;;;5099924;28;19912;-63
2021/05/11 14:29:24;;;;;;;;;;;;;;;;;;5103108;28;19919;-62
2021/05/11 14:31:50;;;;;;;;;;;;;;;;;;5102751;28;19930;-63
2021/05/11 14:34:15;;;;;;;;;;;;;;;;;;5105633;28;19918;-63
2021/05/11 14:36:41;;;;;;;;;;;;;;;;;;5098218;28;20007;-63
2021/05/11 14:39:06;;;;;;;;;;;;;;;;;;5103794;28;19931;-63
2021/05/11 14:41:32;;;;;;;;;;;;;;;;;;5104760;28;19915;-63
2021/05/11 14:43:59;;;;;;;;;;;;;;;;;;5104582;28;19969;-64
2021/05/11 14:46:24;;;;;;;;;;;;;;;;;;5104698;28;20291;-62
2021/05/11 14:48:50;;;;;;;;;;;;;;;;;;5104073;28;19919;-62
2021/05/11 14:51:16;;;;;;;;;;;;;;;;;;5102958;28;19933;-62
2021/05/11 14:53:42;;;;;;;;;;;;;;;;;;5104015;28;20015;-63
2021/05/11 14:56:08;;;;;;;;;;;;;;;;;;5107894;28;19908;-62
2021/05/11 14:58:34;;;;;;;;;;;;;;;;;;5104104;28;20337;-62
2021/05/11 15:00:59;;;;;;;;;;;;;;;;;;5103764;28;19973;-62
2021/05/11 15:03:24;;;;;;;;;;;;;;;;;;5100396;28;19921;-62
2021/05/11 15:05:50;;;;;;;;;;;;;;;;;;5089029;28;20231;-62
2021/05/11 15:08:15;;;;;;;;;;;;;;;;;;5095454;28;20273;-63
2021/05/11 15:10:42;;;;;;;;;;;;;;;;;;5093830;28;19916;-62
2021/05/11 15:13:08;;;;;;;;;;;;;;;;;;5090633;28;19927;-62
2021/05/11 15:15:35;;;;;;;;;;;;;;;;;;5092911;28;20296;-62
2021/05/11 15:18:03;;;;;;;;;;;;;;;;;;5095303;28;19916;-62
2021/05/11 15:20:29;;;;;;;;;;;;;;;;;;5090713;28;20014;-62
2021/05/11 15:22:54;;;;;;;;;;;;;;;;;;5093664;28;19955;-62
2021/05/11 15:25:20;;;;;;;;;;;;;;;;;;5093690;28;19927;-62
2021/05/11 15:27:45;;;;;;;;;;;;;;;;;;5094411;28;20261;-62
2021/05/11 15:30:11;;;;;;;;;;;;;;;;;;5091803;28;19916;-62
2021/05/11 15:32:37;;;;;;;;;;;;;;;;;;5092368;28;19912;-62
2021/05/11 15:35:03;;;;;;;;;;;;;;;;;;5089452;28;19959;-62
2021/05/11 15:37:28;;;;;;;;;;;;;;;;;;5091820;28;19970;-62
2021/05/11 15:39:53;;;;;;;;;;;;;;;;;;5092445;28;19924;-62
2021/05/11 15:42:19;;;;;;;;;;;;;;;;;;5089780;28;19920;-60
2021/05/11 15:44:44;;;;;;;;;;;;;;;;;;5091337;28;19920;-60
2021/05/11 15:47:10;;;;;;;;;;;;;;;;;;5090973;28;20365;-60
2021/05/11 15:49:35;;;;;;;;;;;;;;;;;;5089461;28;19970;-61
2021/05/11 15:52:00;;;;;;;;;;;;;;;;;;5093449;28;19930;-61
2021/05/11 15:54:26;;;;;;;;;;;;;;;;;;5095467;28;19968;-60
2021/05/11 15:56:51;;;;;;;;;;;;;;;;;;5092710;28;19912;-60
2021/05/11 15:59:17;;;;;;;;;;;;;;;;;;5089788;28;19919;-62
2021/05/11 16:01:42;;;;;;;;;;;;;;;;;;5091317;28;19922;-63
2021/05/11 16:04:07;;;;;;;;;;;;;;;;;;5091225;28;19912;-63
2021/05/11 16:06:33;;;;;;;;;;;;;;;;;;5095587;28;19996;-64
2021/05/11 16:08:58;;;;;;;;;;;;;;;;;;5094267;28;19916;-64
2021/05/11 16:11:24;;;;;;;;;;;;;;;;;;5091524;28;19966;-64
2021/05/11 16:13:49;;;;;;;;;;;;;;;;;;5093159;28;20260;-64
2021/05/11 16:16:14;;;;;;;;;;;;;;;;;;5094109;28;19923;-64
2021/05/11 16:18:40;;;;;;;;;;;;;;;;;;5094796;28;19916;-64
2021/05/11 16:21:06;;;;;;;;;;;;;;;;;;5110170;28;20471;-64
2021/05/11 16:23:31;;;;;;;;;;;;;;;;;;5095776;28;20003;-63
2021/05/11 16:25:57;;;;;;;;;;;;;;;;;;5095003;28;19918;-64
2021/05/11 16:28:22;;;;;;;;;;;;;;;;;;5095677;28;19924;-63
2021/05/11 16:30:47;;;;;;;;;;;;;;;;;;5095779;28;20244;-64
2021/05/11 16:33:14;;;;;;;;;;;;;;;;;;5110404;28;19951;-64
2021/05/11 16:35:39;;;;;;;;;;;;;;;;;;5087663;28;20001;-62
2021/05/11 16:38:04;;;;;;;;;;;;;;;;;;5089674;28;19916;-64
2021/05/11 16:40:30;;;;;;;;;;;;;;;;;;5088660;28;19916;-65
2021/05/11 16:42:56;;;;;;;;;;;;;;;;;;5093800;28;20336;-64
2021/05/11 16:45:22;;;;;;;;;;;;;;;;;;5092708;28;19977;-65
2021/05/11 16:47:59;;;;;;;;;;;;;;;;;;5094190;28;19911;-64
2021/05/11 16:50:24;;;;;;;;;;;;;;;;;;5091250;28;19928;-64
2021/05/11 16:52:49;;;;;;;;;;;;;;;;;;5111368;28;19916;-65
2021/05/11 16:55:15;;;;;;;;;;;;;;;;;;5107585;28;20007;-64
2021/05/11 16:57:41;;;;;;;;;;;;;;;;;;5092132;28;19916;-64
2021/05/11 17:00:06;;;;;;;;;;;;;;;;;;5092655;28;20113;-64
2021/05/11 17:02:32;;;;;;;;;;;;;;;;;;5097598;28;19916;-65
2021/05/11 17:04:57;;;;;;;;;;;;;;;;;;5094543;28;19927;-65
2021/05/11 17:07:22;;;;;;;;;;;;;;;;;;5094378;28;19920;-65
2021/05/11 17:09:48;;;;;;;;;;;;;;;;;;5092701;28;19935;-64
2021/05/11 17:12:15;;;;;;;;;;;;;;;;;;5093354;28;20205;-65
2021/05/11 17:14:41;;;;;;;;;;;;;;;;;;5091274;28;19912;-66
2021/05/11 17:17:06;;;;;;;;;;;;;;;;;;5091503;28;20452;-65
2021/05/11 17:19:32;;;;;;;;;;;;;;;;;;5093113;28;19924;-64
2021/05/11 17:21:57;;;;;;;;;;;;;;;;;;5095887;28;20265;-64
2021/05/11 17:24:22;;;;;;;;;;;;;;;;;;5092042;28;20025;-62
2021/05/11 17:26:48;;;;;;;;;;;;;;;;;;5086816;28;20383;-64
2021/05/11 17:29:17;;;;;;;;;;;;;;;;;;5091246;28;19916;-65
2021/05/11 17:31:42;;;;;;;;;;;;;;;;;;5100869;28;19969;-64
2021/05/11 17:34:08;;;;;;;;;;;;;;;;;;5103904;28;19916;-64
2021/05/11 17:36:33;;;;;;;;;;;;;;;;;;5101481;28;19912;-65
2021/05/11 17:39:08;;;;;;;;;;;;;;;;;;5096866;28;20406;-64
2021/05/11 17:41:33;;;;;;;;;;;;;;;;;;5094987;28;19916;-65
2021/05/11 17:43:58;;;;;;;;;;;;;;;;;;5108841;28;20011;-61
2021/05/11 17:46:24;;;;;;;;;;;;;;;;;;5092598;28;19912;-60
2021/05/11 17:48:49;;;;;;;;;;;;;;;;;;5090935;28;19931;-60
2021/05/11 17:51:17;;;;;;;;;;;;;;;;;;5089084;28;19912;-60
2021/05/11 17:53:42;;;;;;;;;;;;;;;;;;5092033;28;19939;-60
2021/05/11 17:56:07;;;;;;;;;;;;;;;;;;5091167;28;20326;-64
2021/05/11 17:58:33;;;;;;;;;;;;;;;;;;5093082;28;19908;-65
2021/05/11 18:00:58;;;;;;;;;;;;;;;;;;5090293;28;19931;-64
2021/05/11 18:03:23;;;;;;;;;;;;;;;;;;5092226;28;19928;-64
2021/05/11 18:05:50;;;;;;;;;;;;;;;;;;5091127;28;19924;-64
2021/05/11 18:08:17;;;;;;;;;;;;;;;;;;5092796;28;19908;-65
2021/05/11 18:10:42;;;;;;;;;;;;;;;;;;5088311;28;19939;-66
2021/05/11 18:13:07;;;;;;;;;;;;;;;;;;5089728;28;20413;-65
2021/05/11 18:15:33;;;;;;;;;;;;;;;;;;5091527;28;19974;-64
2021/05/11 18:17:58;;;;;;;;;;;;;;;;;;5089530;28;19994;-64
2021/05/11 18:20:24;;;;;;;;;;;;;;;;;;5093625;28;20026;-65
2021/05/11 18:22:49;;;;;;;;;;;;;;;;;;5091166;28;19920;-65
2021/05/11 18:25:15;;;;;;;;;;;;;;;;;;5107537;28;19947;-65
2021/05/11 18:27:41;;;;;;;;;;;;;;;;;;5091038;28;19919;-64
2021/05/11 18:30:07;;;;;;;;;;;;;;;;;;5092993;28;19931;-64
2021/05/11 18:32:32;;;;;;;;;;;;;;;;;;5091972;28;19912;-64
2021/05/11 18:34:58;;;;;;;;;;;;;;;;;;5089304;28;19912;-64
2021/05/11 18:39:49;;;;;;;;;;;;;;;;;;5090257;28;20290;-64
2021/05/11 18:42:14;;;;;;;;;;;;;;;;;;5103583;28;19920;-65
2021/05/11 18:44:39;;;;;;;;;;;;;;;;;;5086636;28;19920;-65
2021/05/11 18:47:05;;;;;;;;;;;;;;;;;;5089839;28;19943;-65
2021/05/11 18:49:30;;;;;;;;;;;;;;;;;;5091195;28;19972;-64
2021/05/11 18:51:56;;;;;;;;;;;;;;;;;;5088935;28;20011;-64
2021/05/11 18:54:21;;;;;;;;;;;;;;;;;;5105712;28;20223;-65
2021/05/11 18:56:47;;;;;;;;;;;;;;;;;;5093745;28;19923;-64
2021/05/11 18:59:12;;;;;;;;;;;;;;;;;;5094457;28;19913;-61
2021/05/11 19:01:40;;;;;;;;;;;;;;;;;;5087748;28;19912;-61
2021/05/11 19:04:06;;;;;;;;;;;;;;;;;;5089427;28;20010;-60
2021/05/11 19:06:32;;;;;;;;;;;;;;;;;;5102270;28;19980;-60
2021/05/11 19:09:01;;;;;;;;;;;;;;;;;;5103216;28;20350;-60
2021/05/11 19:11:26;;;;;;;;;;;;;;;;;;5099059;28;20065;-60
2021/05/11 19:13:52;;;;;;;;;;;;;;;;;;5105045;28;20342;-60
2021/05/11 19:16:17;;;;;;;;;;;;;;;;;;5099559;28;19919;-60
2021/05/11 19:18:43;;;;;;;;;;;;;;;;;;5101314;28;19912;-60
2021/05/11 19:21:08;;;;;;;;;;;;;;;;;;5099219;28;19923;-60
2021/05/11 19:23:35;;;;;;;;;;;;;;;;;;5104219;28;20360;-60
2021/05/11 19:26:01;;;;;;;;;;;;;;;;;;5100343;28;20252;-60
2021/05/11 19:28:26;;;;;;;;;;;;;;;;;;5097846;28;19924;-60
2021/05/11 19:30:52;;;;;;;;;;;;;;;;;;5099232;28;20410;-61
2021/05/11 19:33:17;;;;;;;;;;;;;;;;;;5099710;28;19912;-60
2021/05/11 19:35:42;;;;;;;;;;;;;;;;;;5100881;28;19931;-60
2021/05/11 19:38:08;;;;;;;;;;;;;;;;;;5097643;28;19922;-59
2021/05/11 19:40:33;;;;;;;;;;;;;;;;;;5094583;28;20360;-60
2021/05/11 19:42:59;;;;;;;;;;;;;;;;;;5101097;28;19916;-52
2021/05/11 19:45:24;;;;;;;;;;;;;;;;;;5100240;28;19916;-61
2021/05/11 19:47:50;;;;;;;;;;;;;;;;;;5099787;28;20745;-62
2021/05/11 19:50:15;;;;;;;;;;;;;;;;;;5102831;28;19915;-61
2021/05/11 19:52:42;;;;;;;;;;;;;;;;;;5103923;28;19912;-60
2021/05/11 19:55:07;;;;;;;;;;;;;;;;;;5097812;28;19960;-61
2021/05/11 19:57:33;;;;;;;;;;;;;;;;;;5099518;28;19951;-60
2021/05/11 19:59:58;;;;;;;;;;;;;;;;;;5093462;28;19922;-59
2021/05/11 20:02:23;;;;;;;;;;;;;;;;;;5094450;28;19970;-60
2021/05/11 20:04:50;;;;;;;;;;;;;;;;;;5099607;28;19916;-59
2021/05/11 20:07:15;;;;;;;;;;;;;;;;;;5091302;28;19916;-60
2021/05/11 20:09:41;;;;;;;;;;;;;;;;;;5092618;28;19916;-59
2021/05/11 20:12:06;;;;;;;;;;;;;;;;;;5091803;28;19927;-60
2021/05/11 20:14:31;;;;;;;;;;;;;;;;;;5092219;28;19912;-60
2021/05/11 20:16:57;;;;;;;;;;;;;;;;;;5090777;28;19915;-60
2021/05/11 20:19:22;;;;;;;;;;;;;;;;;;5092176;28;19916;-60
2021/05/11 20:21:47;;;;;;;;;;;;;;;;;;5092423;28;20010;-60
2021/05/11 20:24:13;;;;;;;;;;;;;;;;;;5088754;28;19926;-60
2021/05/11 20:26:39;;;;;;;;;;;;;;;;;;5090694;28;19916;-60
2021/05/11 20:29:06;;;;;;;;;;;;;;;;;;5091570;28;20352;-60
2021/05/11 20:31:32;;;;;;;;;;;;;;;;;;5088733;28;20373;-60
2021/05/11 20:33:58;;;;;;;;;;;;;;;;;;5089158;28;19912;-60
2021/05/11 20:36:26;;;;;;;;;;;;;;;;;;5090668;28;20365;-60
2021/05/11 20:38:51;;;;;;;;;;;;;;;;;;5090721;28;19916;-60
2021/05/11 20:41:16;;;;;;;;;;;;;;;;;;5091773;28;19930;-59
2021/05/11 20:43:42;;;;;;;;;;;;;;;;;;5089670;28;19974;-60
2021/05/11 20:46:07;;;;;;;;;;;;;;;;;;5089015;28;19945;-60
2021/05/11 20:48:33;;;;;;;;;;;;;;;;;;5092088;28;20265;-60